sensor_id;sensor_type;location;lat;lon;timestamp;pressure;altitude;pressure_sealevel;temperature;humidity
37291;BME280;23175;-33.706;151.094;2023-05-23T00:01:42;101070.11;;;16.45;25.64
37291;BME280;23175;-33.706;151.094;2023-05-23T00:04:12;101067.83;;;18.52;23.28
37291;BME280;23175;-33.706;151.094;2023-05-23T00:06:41;101070.75;;;17.86;22.72
37291;BME280;23175;-33.706;151.094;2023-05-23T00:09:12;101067.03;;;13.15;26.01
37291;BME280;23175;-33.706;151.094;2023-05-23T00:11:42;101067.30;;;17.37;22.53
37291;BME280;23175;-33.706;151.094;2023-05-23T00:14:13;101062.22;;;16.38;23.35
37291;BME280;23175;-33.706;151.094;2023-05-23T00:16:44;101061.26;;;16.29;23.86
37291;BME280;23175;-33.706;151.094;2023-05-23T00:19:14;101063.66;;;15.54;24.95
37291;BME280;23175;-33.706;151.094;2023-05-23T00:21:46;101060.88;;;17.12;22.64
37291;BME280;23175;-33.706;151.094;2023-05-23T00:24:17;101058.26;;;16.76;23.85
37291;BME280;23175;-33.706;151.094;2023-05-23T00:26:47;101054.61;;;14.99;25.14
37291;BME280;23175;-33.706;151.094;2023-05-23T00:29:17;101048.82;;;15.69;25.55
37291;BME280;23175;-33.706;151.094;2023-05-23T00:31:47;101051.20;;;14.40;27.67
37291;BME280;23175;-33.706;151.094;2023-05-23T00:34:17;101050.21;;;11.49;28.03
37291;BME280;23175;-33.706;151.094;2023-05-23T00:36:47;101043.88;;;15.87;23.96
37291;BME280;23175;-33.706;151.094;2023-05-23T00:39:17;101035.16;;;14.41;24.09
37291;BME280;23175;-33.706;151.094;2023-05-23T00:41:47;101030.71;;;18.57;21.66
37291;BME280;23175;-33.706;151.094;2023-05-23T00:44:18;101026.19;;;19.21;20.98
37291;BME280;23175;-33.706;151.094;2023-05-23T00:46:52;101022.66;;;15.62;22.01
37291;BME280;23175;-33.706;151.094;2023-05-23T00:49:25;101015.45;;;15.89;21.37
37291;BME280;23175;-33.706;151.094;2023-05-23T00:51:56;101010.84;;;17.84;19.87
37291;BME280;23175;-33.706;151.094;2023-05-23T00:54:28;101006.78;;;19.65;18.91
37291;BME280;23175;-33.706;151.094;2023-05-23T00:56:59;101003.25;;;17.02;20.52
37291;BME280;23175;-33.706;151.094;2023-05-23T00:59:29;100999.66;;;19.26;19.14
37291;BME280;23175;-33.706;151.094;2023-05-23T01:02:01;100994.91;;;18.62;20.43
37291;BME280;23175;-33.706;151.094;2023-05-23T01:04:31;100988.48;;;18.91;20.23
37291;BME280;23175;-33.706;151.094;2023-05-23T01:07:01;100987.41;;;18.70;20.73
37291;BME280;23175;-33.706;151.094;2023-05-23T01:09:32;100986.45;;;15.87;21.98
37291;BME280;23175;-33.706;151.094;2023-05-23T01:12:13;100986.00;;;16.81;22.18
37291;BME280;23175;-33.706;151.094;2023-05-23T01:14:50;100982.93;;;17.07;21.62
37291;BME280;23175;-33.706;151.094;2023-05-23T01:17:37;100976.87;;;15.39;23.26
37291;BME280;23175;-33.706;151.094;2023-05-23T01:20:11;100974.89;;;15.89;23.98
37291;BME280;23175;-33.706;151.094;2023-05-23T01:23:07;100975.36;;;16.13;23.71
37291;BME280;23175;-33.706;151.094;2023-05-23T01:25:50;100973.96;;;15.98;23.38
37291;BME280;23175;-33.706;151.094;2023-05-23T01:28:22;100973.95;;;13.87;26.18
37291;BME280;23175;-33.706;151.094;2023-05-23T01:30:59;100972.80;;;12.99;27.15
37291;BME280;23175;-33.706;151.094;2023-05-23T01:33:32;100974.79;;;13.02;28.31
37291;BME280;23175;-33.706;151.094;2023-05-23T01:36:04;100973.88;;;12.16;28.67
37291;BME280;23175;-33.706;151.094;2023-05-23T01:38:35;100966.38;;;13.44;29.34
37291;BME280;23175;-33.706;151.094;2023-05-23T01:41:04;100962.36;;;13.78;29.72
37291;BME280;23175;-33.706;151.094;2023-05-23T01:43:34;100959.48;;;14.35;28.59
37291;BME280;23175;-33.706;151.094;2023-05-23T01:46:05;100954.05;;;14.83;28.11
37291;BME280;23175;-33.706;151.094;2023-05-23T01:48:37;100952.33;;;13.59;28.63
37291;BME280;23175;-33.706;151.094;2023-05-23T01:51:07;100947.50;;;14.91;27.87
37291;BME280;23175;-33.706;151.094;2023-05-23T01:53:37;100945.95;;;15.43;27.46
37291;BME280;23175;-33.706;151.094;2023-05-23T01:56:08;100945.66;;;13.84;28.11
37291;BME280;23175;-33.706;151.094;2023-05-23T01:58:39;100944.88;;;11.23;29.13
37291;BME280;23175;-33.706;151.094;2023-05-23T02:01:09;100942.41;;;12.83;28.59
37291;BME280;23175;-33.706;151.094;2023-05-23T02:03:40;100944.03;;;13.23;28.25
37291;BME280;23175;-33.706;151.094;2023-05-23T02:06:10;100944.98;;;13.53;27.17
37291;BME280;23175;-33.706;151.094;2023-05-23T02:08:41;100941.86;;;12.09;28.48
37291;BME280;23175;-33.706;151.094;2023-05-23T02:11:10;100935.28;;;13.74;26.40
37291;BME280;23175;-33.706;151.094;2023-05-23T02:13:41;100933.14;;;12.27;27.16
37291;BME280;23175;-33.706;151.094;2023-05-23T02:16:11;100929.82;;;11.52;27.29
37291;BME280;23175;-33.706;151.094;2023-05-23T02:18:40;100930.63;;;11.86;27.29
37291;BME280;23175;-33.706;151.094;2023-05-23T02:21:11;100922.19;;;13.27;25.82
37291;BME280;23175;-33.706;151.094;2023-05-23T02:23:41;100921.02;;;12.17;27.41
37291;BME280;23175;-33.706;151.094;2023-05-23T02:26:11;100920.88;;;12.02;27.35
37291;BME280;23175;-33.706;151.094;2023-05-23T02:28:41;100917.28;;;11.98;25.99
37291;BME280;23175;-33.706;151.094;2023-05-23T02:31:12;100909.52;;;12.56;26.06
37291;BME280;23175;-33.706;151.094;2023-05-23T02:33:42;100905.71;;;13.41;26.06
37291;BME280;23175;-33.706;151.094;2023-05-23T02:36:12;100904.51;;;12.16;27.27
37291;BME280;23175;-33.706;151.094;2023-05-23T02:38:42;100901.17;;;13.80;25.97
37291;BME280;23175;-33.706;151.094;2023-05-23T02:41:12;100896.33;;;11.39;28.38
37291;BME280;23175;-33.706;151.094;2023-05-23T02:43:42;100891.06;;;12.95;26.78
37291;BME280;23175;-33.706;151.094;2023-05-23T02:46:13;100882.53;;;13.05;27.40
37291;BME280;23175;-33.706;151.094;2023-05-23T02:48:43;100875.56;;;13.92;25.66
37291;BME280;23175;-33.706;151.094;2023-05-23T02:51:13;100869.97;;;12.16;28.21
37291;BME280;23175;-33.706;151.094;2023-05-23T02:53:43;100866.58;;;12.52;26.51
37291;BME280;23175;-33.706;151.094;2023-05-23T02:56:13;100862.73;;;14.16;25.41
37291;BME280;23175;-33.706;151.094;2023-05-23T02:58:42;100864.12;;;14.75;25.18
37291;BME280;23175;-33.706;151.094;2023-05-23T03:01:13;100859.88;;;12.16;26.44
37291;BME280;23175;-33.706;151.094;2023-05-23T03:03:43;100856.94;;;10.00;27.01
37291;BME280;23175;-33.706;151.094;2023-05-23T03:06:12;100852.63;;;12.40;25.26
37291;BME280;23175;-33.706;151.094;2023-05-23T03:08:43;100842.62;;;12.58;24.50
37291;BME280;23175;-33.706;151.094;2023-05-23T03:11:13;100837.13;;;12.79;24.50
37291;BME280;23175;-33.706;151.094;2023-05-23T03:13:43;100829.75;;;14.25;23.37
37291;BME280;23175;-33.706;151.094;2023-05-23T03:16:12;100825.00;;;13.66;23.70
37291;BME280;23175;-33.706;151.094;2023-05-23T03:18:42;100824.44;;;11.79;24.22
37291;BME280;23175;-33.706;151.094;2023-05-23T03:21:12;100819.75;;;15.72;21.71
37291;BME280;23175;-33.706;151.094;2023-05-23T03:23:42;100815.08;;;14.29;23.26
37291;BME280;23175;-33.706;151.094;2023-05-23T03:26:12;100811.22;;;15.24;23.47
37291;BME280;23175;-33.706;151.094;2023-05-23T03:28:42;100814.15;;;11.93;27.01
37291;BME280;23175;-33.706;151.094;2023-05-23T03:31:11;100810.73;;;14.01;24.02
37291;BME280;23175;-33.706;151.094;2023-05-23T03:33:42;100809.84;;;16.12;22.40
37291;BME280;23175;-33.706;151.094;2023-05-23T03:36:12;100809.86;;;13.96;22.86
37291;BME280;23175;-33.706;151.094;2023-05-23T03:38:41;100807.74;;;13.31;23.83
37291;BME280;23175;-33.706;151.094;2023-05-23T03:41:11;100807.13;;;16.06;22.08
37291;BME280;23175;-33.706;151.094;2023-05-23T03:43:41;100803.26;;;14.94;22.81
37291;BME280;23175;-33.706;151.094;2023-05-23T03:46:11;100804.97;;;15.44;22.78
37291;BME280;23175;-33.706;151.094;2023-05-23T03:48:40;100802.42;;;13.42;22.64
37291;BME280;23175;-33.706;151.094;2023-05-23T03:51:10;100806.44;;;16.44;21.17
37291;BME280;23175;-33.706;151.094;2023-05-23T03:53:40;100804.97;;;15.62;21.75
37291;BME280;23175;-33.706;151.094;2023-05-23T03:56:10;100804.92;;;14.21;23.44
37291;BME280;23175;-33.706;151.094;2023-05-23T03:58:40;100804.38;;;13.70;22.90
37291;BME280;23175;-33.706;151.094;2023-05-23T04:01:10;100803.14;;;13.92;22.56
37291;BME280;23175;-33.706;151.094;2023-05-23T04:03:40;100801.28;;;14.59;22.82
37291;BME280;23175;-33.706;151.094;2023-05-23T04:06:10;100798.81;;;15.15;22.73
37291;BME280;23175;-33.706;151.094;2023-05-23T04:08:41;100798.24;;;12.29;24.30
37291;BME280;23175;-33.706;151.094;2023-05-23T04:11:10;100792.24;;;14.30;22.26
37291;BME280;23175;-33.706;151.094;2023-05-23T04:13:40;100790.90;;;11.97;25.08
37291;BME280;23175;-33.706;151.094;2023-05-23T04:16:11;100793.42;;;11.38;27.34
37291;BME280;23175;-33.706;151.094;2023-05-23T04:18:40;100792.38;;;14.52;24.03
37291;BME280;23175;-33.706;151.094;2023-05-23T04:21:10;100790.33;;;16.63;22.74
37291;BME280;23175;-33.706;151.094;2023-05-23T04:23:40;100794.67;;;14.07;24.50
37291;BME280;23175;-33.706;151.094;2023-05-23T04:26:09;100796.94;;;14.58;23.35
37291;BME280;23175;-33.706;151.094;2023-05-23T04:28:39;100797.85;;;15.29;22.45
37291;BME280;23175;-33.706;151.094;2023-05-23T04:31:09;100796.13;;;15.67;22.59
37291;BME280;23175;-33.706;151.094;2023-05-23T04:33:38;100798.42;;;14.23;23.68
37291;BME280;23175;-33.706;151.094;2023-05-23T04:36:09;100800.01;;;14.61;23.82
37291;BME280;23175;-33.706;151.094;2023-05-23T04:38:39;100801.18;;;15.64;22.85
37291;BME280;23175;-33.706;151.094;2023-05-23T04:41:09;100801.32;;;13.70;24.96
37291;BME280;23175;-33.706;151.094;2023-05-23T04:43:39;100801.35;;;13.69;24.73
37291;BME280;23175;-33.706;151.094;2023-05-23T04:46:10;100804.00;;;16.14;23.00
37291;BME280;23175;-33.706;151.094;2023-05-23T04:48:40;100802.36;;;16.08;22.86
37291;BME280;23175;-33.706;151.094;2023-05-23T04:51:10;100799.44;;;17.07;22.23
37291;BME280;23175;-33.706;151.094;2023-05-23T04:53:39;100803.96;;;15.43;24.31
37291;BME280;23175;-33.706;151.094;2023-05-23T04:56:09;100801.49;;;15.25;23.48
37291;BME280;23175;-33.706;151.094;2023-05-23T04:58:39;100801.43;;;17.34;22.59
37291;BME280;23175;-33.706;151.094;2023-05-23T05:01:09;100802.89;;;15.17;24.18
37291;BME280;23175;-33.706;151.094;2023-05-23T05:03:40;100804.66;;;16.15;23.59
37291;BME280;23175;-33.706;151.094;2023-05-23T05:06:18;100807.67;;;15.53;24.54
37291;BME280;23175;-33.706;151.094;2023-05-23T05:08:48;100803.43;;;16.76;22.68
37291;BME280;23175;-33.706;151.094;2023-05-23T05:11:17;100803.69;;;13.65;25.43
37291;BME280;23175;-33.706;151.094;2023-05-23T05:13:48;100801.14;;;16.77;23.11
37291;BME280;23175;-33.706;151.094;2023-05-23T05:16:18;100799.26;;;14.96;24.75
37291;BME280;23175;-33.706;151.094;2023-05-23T05:18:48;100800.52;;;16.14;22.90
37291;BME280;23175;-33.706;151.094;2023-05-23T05:21:18;100804.20;;;15.65;22.98
37291;BME280;23175;-33.706;151.094;2023-05-23T05:23:47;100803.68;;;17.49;22.57
37291;BME280;23175;-33.706;151.094;2023-05-23T05:26:17;100809.21;;;15.55;24.02
37291;BME280;23175;-33.706;151.094;2023-05-23T05:28:47;100811.34;;;15.43;23.52
37291;BME280;23175;-33.706;151.094;2023-05-23T05:31:17;100812.25;;;15.58;24.55
37291;BME280;23175;-33.706;151.094;2023-05-23T05:33:47;100812.95;;;17.08;23.34
37291;BME280;23175;-33.706;151.094;2023-05-23T05:36:18;100814.35;;;17.29;24.14
37291;BME280;23175;-33.706;151.094;2023-05-23T05:38:48;100815.17;;;17.23;24.57
37291;BME280;23175;-33.706;151.094;2023-05-23T05:41:19;100817.26;;;16.77;26.58
37291;BME280;23175;-33.706;151.094;2023-05-23T05:43:48;100819.69;;;16.30;27.30
37291;BME280;23175;-33.706;151.094;2023-05-23T05:46:18;100822.44;;;16.82;27.30
37291;BME280;23175;-33.706;151.094;2023-05-23T05:48:48;100819.09;;;17.66;27.23
37291;BME280;23175;-33.706;151.094;2023-05-23T05:51:17;100816.87;;;17.31;27.14
37291;BME280;23175;-33.706;151.094;2023-05-23T05:53:48;100818.94;;;16.81;27.80
37291;BME280;23175;-33.706;151.094;2023-05-23T05:56:17;100819.39;;;17.31;27.26
37291;BME280;23175;-33.706;151.094;2023-05-23T05:58:47;100821.44;;;16.22;28.78
37291;BME280;23175;-33.706;151.094;2023-05-23T06:01:17;100822.68;;;16.89;28.59
37291;BME280;23175;-33.706;151.094;2023-05-23T06:03:47;100820.31;;;16.56;29.15
37291;BME280;23175;-33.706;151.094;2023-05-23T06:06:17;100819.72;;;17.15;29.05
37291;BME280;23175;-33.706;151.094;2023-05-23T06:08:46;100822.33;;;16.81;29.25
37291;BME280;23175;-33.706;151.094;2023-05-23T06:11:16;100823.87;;;16.76;29.15
37291;BME280;23175;-33.706;151.094;2023-05-23T06:13:46;100826.04;;;17.44;28.47
37291;BME280;23175;-33.706;151.094;2023-05-23T06:16:16;100825.72;;;16.95;28.63
37291;BME280;23175;-33.706;151.094;2023-05-23T06:18:46;100826.55;;;17.23;28.69
37291;BME280;23175;-33.706;151.094;2023-05-23T06:21:16;100826.84;;;16.45;29.26
37291;BME280;23175;-33.706;151.094;2023-05-23T06:23:46;100826.28;;;16.72;28.86
37291;BME280;23175;-33.706;151.094;2023-05-23T06:26:15;100830.31;;;16.80;29.08
37291;BME280;23175;-33.706;151.094;2023-05-23T06:28:45;100830.53;;;16.64;29.46
37291;BME280;23175;-33.706;151.094;2023-05-23T06:31:15;100837.28;;;15.94;30.58
37291;BME280;23175;-33.706;151.094;2023-05-23T06:33:45;100838.53;;;13.04;33.05
37291;BME280;23175;-33.706;151.094;2023-05-23T06:36:15;100842.43;;;12.75;34.09
37291;BME280;23175;-33.706;151.094;2023-05-23T06:38:45;100844.48;;;14.71;31.99
37291;BME280;23175;-33.706;151.094;2023-05-23T06:41:16;100843.58;;;14.14;33.44
37291;BME280;23175;-33.706;151.094;2023-05-23T06:43:46;100847.85;;;13.59;33.49
37291;BME280;23175;-33.706;151.094;2023-05-23T06:46:16;100851.90;;;12.41;35.45
37291;BME280;23175;-33.706;151.094;2023-05-23T06:48:45;100854.18;;;13.72;34.45
37291;BME280;23175;-33.706;151.094;2023-05-23T06:51:15;100858.10;;;13.89;34.29
37291;BME280;23175;-33.706;151.094;2023-05-23T06:53:46;100864.17;;;13.88;34.33
37291;BME280;23175;-33.706;151.094;2023-05-23T06:56:15;100866.21;;;11.70;36.42
37291;BME280;23175;-33.706;151.094;2023-05-23T06:58:46;100866.13;;;14.58;34.14
37291;BME280;23175;-33.706;151.094;2023-05-23T07:01:16;100865.81;;;15.48;33.66
37291;BME280;23175;-33.706;151.094;2023-05-23T07:03:51;100872.07;;;13.38;36.65
37291;BME280;23175;-33.706;151.094;2023-05-23T07:06:21;100874.18;;;14.69;35.12
37291;BME280;23175;-33.706;151.094;2023-05-23T07:08:51;100870.27;;;14.66;35.22
37291;BME280;23175;-33.706;151.094;2023-05-23T07:11:21;100867.06;;;14.93;35.43
37291;BME280;23175;-33.706;151.094;2023-05-23T07:13:51;100867.45;;;14.97;34.83
37291;BME280;23175;-33.706;151.094;2023-05-23T07:16:21;100871.75;;;14.62;36.16
37291;BME280;23175;-33.706;151.094;2023-05-23T07:18:51;100866.01;;;14.67;35.84
37291;BME280;23175;-33.706;151.094;2023-05-23T07:21:21;100870.01;;;14.63;35.77
37291;BME280;23175;-33.706;151.094;2023-05-23T07:23:56;100875.77;;;13.40;37.96
37291;BME280;23175;-33.706;151.094;2023-05-23T07:26:26;100878.73;;;14.08;37.49
37291;BME280;23175;-33.706;151.094;2023-05-23T07:28:56;100880.66;;;15.26;36.53
37291;BME280;23175;-33.706;151.094;2023-05-23T07:31:26;100886.81;;;14.58;37.25
37291;BME280;23175;-33.706;151.094;2023-05-23T07:33:56;100890.48;;;13.74;38.67
37291;BME280;23175;-33.706;151.094;2023-05-23T07:36:26;100890.25;;;13.94;36.71
37291;BME280;23175;-33.706;151.094;2023-05-23T07:38:56;100892.59;;;14.61;35.97
37291;BME280;23175;-33.706;151.094;2023-05-23T07:41:26;100897.13;;;13.82;37.54
37291;BME280;23175;-33.706;151.094;2023-05-23T07:43:56;100898.10;;;14.30;36.80
37291;BME280;23175;-33.706;151.094;2023-05-23T07:46:26;100900.53;;;14.07;37.15
37291;BME280;23175;-33.706;151.094;2023-05-23T07:48:56;100906.85;;;12.90;39.41
37291;BME280;23175;-33.706;151.094;2023-05-23T07:51:25;100906.60;;;13.82;37.75
37291;BME280;23175;-33.706;151.094;2023-05-23T07:53:56;100906.97;;;13.97;37.30
37291;BME280;23175;-33.706;151.094;2023-05-23T07:56:26;100908.48;;;13.22;37.80
37291;BME280;23175;-33.706;151.094;2023-05-23T07:58:56;100907.22;;;13.47;37.82
37291;BME280;23175;-33.706;151.094;2023-05-23T08:01:27;100910.14;;;13.99;37.49
37291;BME280;23175;-33.706;151.094;2023-05-23T08:03:57;100912.43;;;13.91;37.59
37291;BME280;23175;-33.706;151.094;2023-05-23T08:06:27;100918.75;;;13.81;37.73
37291;BME280;23175;-33.706;151.094;2023-05-23T08:08:58;100919.92;;;13.49;38.37
37291;BME280;23175;-33.706;151.094;2023-05-23T08:11:29;100926.11;;;13.19;38.85
37291;BME280;23175;-33.706;151.094;2023-05-23T08:13:59;100926.18;;;13.44;38.16
37291;BME280;23175;-33.706;151.094;2023-05-23T08:16:30;100929.12;;;13.88;37.98
37291;BME280;23175;-33.706;151.094;2023-05-23T08:19:00;100933.92;;;13.34;38.38
37291;BME280;23175;-33.706;151.094;2023-05-23T08:21:30;100935.82;;;13.65;38.36
37291;BME280;23175;-33.706;151.094;2023-05-23T08:24:01;100936.76;;;13.85;38.08
37291;BME280;23175;-33.706;151.094;2023-05-23T08:26:31;100944.17;;;13.96;38.56
37291;BME280;23175;-33.706;151.094;2023-05-23T08:29:01;100948.89;;;13.70;38.55
37291;BME280;23175;-33.706;151.094;2023-05-23T08:31:32;100952.43;;;13.29;38.70
37291;BME280;23175;-33.706;151.094;2023-05-23T08:34:02;100952.16;;;13.64;39.06
37291;BME280;23175;-33.706;151.094;2023-05-23T08:36:32;100953.46;;;13.28;40.04
37291;BME280;23175;-33.706;151.094;2023-05-23T08:39:03;100954.88;;;13.51;39.13
37291;BME280;23175;-33.706;151.094;2023-05-23T08:41:33;100954.06;;;13.61;39.20
37291;BME280;23175;-33.706;151.094;2023-05-23T08:44:04;100956.78;;;12.85;39.11
37291;BME280;23175;-33.706;151.094;2023-05-23T08:46:39;100963.53;;;13.42;39.41
37291;BME280;23175;-33.706;151.094;2023-05-23T08:49:11;100963.70;;;13.31;39.72
37291;BME280;23175;-33.706;151.094;2023-05-23T08:51:43;100965.23;;;13.37;39.78
37291;BME280;23175;-33.706;151.094;2023-05-23T08:54:15;100965.24;;;13.31;39.47
37291;BME280;23175;-33.706;151.094;2023-05-23T08:56:45;100970.93;;;13.32;39.43
37291;BME280;23175;-33.706;151.094;2023-05-23T08:59:16;100976.13;;;13.29;39.47
37291;BME280;23175;-33.706;151.094;2023-05-23T09:01:48;100980.99;;;13.13;39.64
37291;BME280;23175;-33.706;151.094;2023-05-23T09:04:20;100980.59;;;13.17;39.93
37291;BME280;23175;-33.706;151.094;2023-05-23T09:06:50;100979.27;;;13.19;39.79
37291;BME280;23175;-33.706;151.094;2023-05-23T09:09:20;100979.14;;;12.98;40.03
37291;BME280;23175;-33.706;151.094;2023-05-23T09:11:51;100978.67;;;12.88;39.93
37291;BME280;23175;-33.706;151.094;2023-05-23T09:14:21;100979.59;;;12.72;40.00
37291;BME280;23175;-33.706;151.094;2023-05-23T09:16:51;100983.11;;;12.79;40.13
37291;BME280;23175;-33.706;151.094;2023-05-23T09:19:21;100984.57;;;12.48;40.52
37291;BME280;23175;-33.706;151.094;2023-05-23T09:21:54;100987.55;;;12.31;40.77
37291;BME280;23175;-33.706;151.094;2023-05-23T09:24:34;100991.51;;;12.77;40.73
37291;BME280;23175;-33.706;151.094;2023-05-23T09:27:07;100991.64;;;12.40;40.54
37291;BME280;23175;-33.706;151.094;2023-05-23T09:29:39;100993.00;;;12.95;40.08
37291;BME280;23175;-33.706;151.094;2023-05-23T09:32:17;100991.72;;;12.30;40.74
37291;BME280;23175;-33.706;151.094;2023-05-23T09:35:02;100993.32;;;12.36;40.58
37291;BME280;23175;-33.706;151.094;2023-05-23T09:37:34;100992.35;;;12.77;40.58
37291;BME280;23175;-33.706;151.094;2023-05-23T09:40:08;100990.05;;;12.09;40.63
37291;BME280;23175;-33.706;151.094;2023-05-23T09:42:43;100989.77;;;12.22;41.03
37291;BME280;23175;-33.706;151.094;2023-05-23T09:45:14;100987.89;;;12.24;41.03
37291;BME280;23175;-33.706;151.094;2023-05-23T09:47:50;100985.93;;;11.98;41.29
37291;BME280;23175;-33.706;151.094;2023-05-23T09:50:21;100989.48;;;11.91;41.37
37291;BME280;23175;-33.706;151.094;2023-05-23T09:52:52;100996.11;;;11.92;41.13
37291;BME280;23175;-33.706;151.094;2023-05-23T09:55:22;100998.69;;;12.32;41.15
37291;BME280;23175;-33.706;151.094;2023-05-23T09:57:54;101001.55;;;11.65;41.10
37291;BME280;23175;-33.706;151.094;2023-05-23T10:00:25;100999.80;;;12.47;41.15
37291;BME280;23175;-33.706;151.094;2023-05-23T10:03:04;101001.25;;;12.31;41.04
37291;BME280;23175;-33.706;151.094;2023-05-23T10:05:42;101004.86;;;12.07;41.39
37291;BME280;23175;-33.706;151.094;2023-05-23T10:08:17;101008.05;;;12.14;41.37
37291;BME280;23175;-33.706;151.094;2023-05-23T10:12:52;101008.65;;;12.18;41.38
37291;BME280;23175;-33.706;151.094;2023-05-23T10:15:27;101005.91;;;11.87;41.82
37291;BME280;23175;-33.706;151.094;2023-05-23T10:18:08;101000.79;;;11.69;41.74
37291;BME280;23175;-33.706;151.094;2023-05-23T10:20:41;101001.46;;;11.85;41.41
37291;BME280;23175;-33.706;151.094;2023-05-23T10:23:12;101006.56;;;11.81;41.61
37291;BME280;23175;-33.706;151.094;2023-05-23T10:25:43;101007.74;;;11.73;41.56
37291;BME280;23175;-33.706;151.094;2023-05-23T10:28:14;101012.59;;;11.73;41.24
37291;BME280;23175;-33.706;151.094;2023-05-23T10:30:45;101012.21;;;11.40;41.35
37291;BME280;23175;-33.706;151.094;2023-05-23T10:33:16;101011.35;;;11.54;41.85
37291;BME280;23175;-33.706;151.094;2023-05-23T10:35:55;101005.99;;;11.58;41.33
37291;BME280;23175;-33.706;151.094;2023-05-23T10:38:31;101006.42;;;11.66;41.23
37291;BME280;23175;-33.706;151.094;2023-05-23T10:41:10;101005.70;;;11.53;41.63
37291;BME280;23175;-33.706;151.094;2023-05-23T10:43:46;101006.07;;;11.67;41.32
37291;BME280;23175;-33.706;151.094;2023-05-23T10:46:20;101006.23;;;11.68;41.46
37291;BME280;23175;-33.706;151.094;2023-05-23T10:48:54;101001.42;;;11.33;41.79
37291;BME280;23175;-33.706;151.094;2023-05-23T10:51:26;100999.05;;;12.07;41.60
37291;BME280;23175;-33.706;151.094;2023-05-23T10:54:11;101004.45;;;11.09;42.11
37291;BME280;23175;-33.706;151.094;2023-05-23T10:56:41;101003.88;;;11.15;41.94
37291;BME280;23175;-33.706;151.094;2023-05-23T10:59:20;101001.89;;;11.29;42.08
37291;BME280;23175;-33.706;151.094;2023-05-23T11:01:52;101002.94;;;11.25;42.24
37291;BME280;23175;-33.706;151.094;2023-05-23T11:04:26;101007.69;;;11.55;42.04
37291;BME280;23175;-33.706;151.094;2023-05-23T11:06:58;101009.42;;;11.10;42.41
37291;BME280;23175;-33.706;151.094;2023-05-23T11:09:28;101011.20;;;11.70;42.07
37291;BME280;23175;-33.706;151.094;2023-05-23T11:12:05;101012.49;;;11.59;42.14
37291;BME280;23175;-33.706;151.094;2023-05-23T11:14:52;101013.96;;;11.41;42.19
37291;BME280;23175;-33.706;151.094;2023-05-23T11:17:32;101020.09;;;10.89;42.13
37291;BME280;23175;-33.706;151.094;2023-05-23T11:20:05;101021.48;;;10.92;42.36
37291;BME280;23175;-33.706;151.094;2023-05-23T11:22:36;101021.09;;;11.41;42.46
37291;BME280;23175;-33.706;151.094;2023-05-23T11:25:09;101020.08;;;10.93;42.12
37291;BME280;23175;-33.706;151.094;2023-05-23T11:27:44;101021.34;;;11.04;42.71
37291;BME280;23175;-33.706;151.094;2023-05-23T11:30:16;101021.54;;;11.09;42.35
37291;BME280;23175;-33.706;151.094;2023-05-23T11:32:52;101023.09;;;11.23;42.43
37291;BME280;23175;-33.706;151.094;2023-05-23T11:35:22;101027.84;;;10.96;42.27
37291;BME280;23175;-33.706;151.094;2023-05-23T11:37:54;101031.14;;;10.89;42.61
37291;BME280;23175;-33.706;151.094;2023-05-23T11:40:28;101030.77;;;10.96;42.66
37291;BME280;23175;-33.706;151.094;2023-05-23T11:42:59;101033.33;;;10.94;42.52
37291;BME280;23175;-33.706;151.094;2023-05-23T11:45:30;101035.18;;;10.92;42.24
37291;BME280;23175;-33.706;151.094;2023-05-23T11:48:07;101040.50;;;10.61;42.49
37291;BME280;23175;-33.706;151.094;2023-05-23T11:50:44;101038.57;;;10.82;42.49
37291;BME280;23175;-33.706;151.094;2023-05-23T11:53:17;101037.04;;;10.52;42.40
37291;BME280;23175;-33.706;151.094;2023-05-23T11:55:52;101034.58;;;10.88;42.42
37291;BME280;23175;-33.706;151.094;2023-05-23T11:58:26;101034.91;;;10.63;42.65
37291;BME280;23175;-33.706;151.094;2023-05-23T12:01:00;101034.23;;;10.32;42.42
37291;BME280;23175;-33.706;151.094;2023-05-23T12:03:31;101034.02;;;10.67;43.46
37291;BME280;23175;-33.706;151.094;2023-05-23T12:06:01;101034.19;;;10.54;43.62
37291;BME280;23175;-33.706;151.094;2023-05-23T12:08:33;101032.95;;;10.20;43.37
37291;BME280;23175;-33.706;151.094;2023-05-23T12:11:04;101036.78;;;8.94;44.64
37291;BME280;23175;-33.706;151.094;2023-05-23T12:13:34;101038.58;;;11.08;43.66
37291;BME280;23175;-33.706;151.094;2023-05-23T12:16:07;101041.47;;;7.61;47.31
37291;BME280;23175;-33.706;151.094;2023-05-23T12:18:38;101033.02;;;9.28;45.55
37291;BME280;23175;-33.706;151.094;2023-05-23T12:21:09;101031.02;;;10.12;44.42
37291;BME280;23175;-33.706;151.094;2023-05-23T12:23:40;101028.45;;;10.73;43.64
37291;BME280;23175;-33.706;151.094;2023-05-23T12:26:13;101025.56;;;10.40;43.62
37291;BME280;23175;-33.706;151.094;2023-05-23T12:28:44;101026.33;;;10.49;43.56
37291;BME280;23175;-33.706;151.094;2023-05-23T12:31:17;101020.67;;;10.34;43.67
37291;BME280;23175;-33.706;151.094;2023-05-23T12:33:54;101017.47;;;10.30;43.72
37291;BME280;23175;-33.706;151.094;2023-05-23T12:36:28;101014.92;;;10.78;43.33
37291;BME280;23175;-33.706;151.094;2023-05-23T12:39:02;101012.58;;;10.59;43.15
37291;BME280;23175;-33.706;151.094;2023-05-23T12:41:33;101011.18;;;10.56;43.02
37291;BME280;23175;-33.706;151.094;2023-05-23T12:44:04;101009.20;;;10.47;43.17